sensor_id;sensor_type;location;lat;lon;timestamp;temperature;humidity
28677;DHT22;15858;48.338;11.078;2024-02-26T00:01:22;4.40;99.90
28677;DHT22;15858;48.338;11.078;2024-02-26T00:03:48;4.40;99.90
28677;DHT22;15858;48.338;11.078;2024-02-26T00:06:15;4.40;99.90
28677;DHT22;15858;48.338;11.078;2024-02-26T00:08:42;4.40;99.90
28677;DHT22;15858;48.338;11.078;2024-02-26T00:11:09;4.40;99.90
28677;DHT22;15858;48.338;11.078;2024-02-26T00:13:36;4.50;99.90
28677;DHT22;15858;48.338;11.078;2024-02-26T00:16:04;4.50;99.90
28677;DHT22;15858;48.338;11.078;2024-02-26T00:18:30;4.50;99.90
28677;DHT22;15858;48.338;11.078;2024-02-26T00:20:57;4.40;99.90
28677;DHT22;15858;48.338;11.078;2024-02-26T00:23:24;4.30;99.90
28677;DHT22;15858;48.338;11.078;2024-02-26T00:25:51;4.30;99.90
28677;DHT22;15858;48.338;11.078;2024-02-26T00:28:18;4.30;99.90
28677;DHT22;15858;48.338;11.078;2024-02-26T00:30:45;4.20;99.90
28677;DHT22;15858;48.338;11.078;2024-02-26T00:33:11;4.30;99.90
28677;DHT22;15858;48.338;11.078;2024-02-26T00:35:38;4.30;99.90
28677;DHT22;15858;48.338;11.078;2024-02-26T00:38:06;4.30;99.90
28677;DHT22;15858;48.338;11.078;2024-02-26T00:40:32;4.30;99.90
28677;DHT22;15858;48.338;11.078;2024-02-26T00:42:59;4.40;99.90
28677;DHT22;15858;48.338;11.078;2024-02-26T00:45:27;4.40;99.90
28677;DHT22;15858;48.338;11.078;2024-02-26T00:47:53;4.30;99.90
28677;DHT22;15858;48.338;11.078;2024-02-26T00:50:20;4.10;99.90
28677;DHT22;15858;48.338;11.078;2024-02-26T00:52:47;4.10;99.90
28677;DHT22;15858;48.338;11.078;2024-02-26T00:55:14;4.10;99.90
28677;DHT22;15858;48.338;11.078;2024-02-26T00:57:41;4.10;99.90
28677;DHT22;15858;48.338;11.078;2024-02-26T01:00:08;4.00;99.90
28677;DHT22;15858;48.338;11.078;2024-02-26T01:02:35;4.00;99.90
28677;DHT22;15858;48.338;11.078;2024-02-26T01:05:01;3.90;99.90
28677;DHT22;15858;48.338;11.078;2024-02-26T01:07:28;4.00;99.90
28677;DHT22;15858;48.338;11.078;2024-02-26T01:09:55;3.90;99.90
28677;DHT22;15858;48.338;11.078;2024-02-26T01:12:21;3.90;99.90
28677;DHT22;15858;48.338;11.078;2024-02-26T01:14:48;3.90;99.90
28677;DHT22;15858;48.338;11.078;2024-02-26T01:17:15;3.80;99.90
28677;DHT22;15858;48.338;11.078;2024-02-26T01:19:42;3.80;99.90
28677;DHT22;15858;48.338;11.078;2024-02-26T01:22:09;3.80;99.90
28677;DHT22;15858;48.338;11.078;2024-02-26T01:24:36;3.70;99.90
28677;DHT22;15858;48.338;11.078;2024-02-26T01:27:03;3.70;99.90
28677;DHT22;15858;48.338;11.078;2024-02-26T01:29:29;3.70;99.90
28677;DHT22;15858;48.338;11.078;2024-02-26T01:31:56;3.60;99.90
28677;DHT22;15858;48.338;11.078;2024-02-26T01:34:23;3.60;99.90
28677;DHT22;15858;48.338;11.078;2024-02-26T01:36:50;3.60;99.90
28677;DHT22;15858;48.338;11.078;2024-02-26T01:39:16;3.60;99.90
28677;DHT22;15858;48.338;11.078;2024-02-26T01:41:43;3.50;99.90
28677;DHT22;15858;48.338;11.078;2024-02-26T01:44:12;3.60;99.90
28677;DHT22;15858;48.338;11.078;2024-02-26T01:46:39;3.60;99.90
28677;DHT22;15858;48.338;11.078;2024-02-26T01:49:07;3.60;99.90
28677;DHT22;15858;48.338;11.078;2024-02-26T01:51:35;3.60;99.90
28677;DHT22;15858;48.338;11.078;2024-02-26T01:54:02;3.60;99.90
28677;DHT22;15858;48.338;11.078;2024-02-26T01:56:30;3.60;99.90
28677;DHT22;15858;48.338;11.078;2024-02-26T01:58:57;3.60;99.90
28677;DHT22;15858;48.338;11.078;2024-02-26T02:01:25;3.60;99.90
28677;DHT22;15858;48.338;11.078;2024-02-26T02:03:55;3.60;99.90
28677;DHT22;15858;48.338;11.078;2024-02-26T02:06:23;3.50;99.90
28677;DHT22;15858;48.338;11.078;2024-02-26T02:08:50;3.50;99.90
28677;DHT22;15858;48.338;11.078;2024-02-26T02:11:17;3.40;99.90
28677;DHT22;15858;48.338;11.078;2024-02-26T02:13:44;3.40;99.90
28677;DHT22;15858;48.338;11.078;2024-02-26T02:16:10;3.40;99.90
28677;DHT22;15858;48.338;11.078;2024-02-26T02:18:37;3.40;99.90
28677;DHT22;15858;48.338;11.078;2024-02-26T02:21:04;3.30;99.90
28677;DHT22;15858;48.338;11.078;2024-02-26T02:23:31;3.30;99.90
28677;DHT22;15858;48.338;11.078;2024-02-26T02:25:58;3.30;99.90
28677;DHT22;15858;48.338;11.078;2024-02-26T02:28:26;3.30;99.90
28677;DHT22;15858;48.338;11.078;2024-02-26T02:30:54;3.30;99.90
28677;DHT22;15858;48.338;11.078;2024-02-26T02:33:21;3.20;99.90
28677;DHT22;15858;48.338;11.078;2024-02-26T02:35:49;3.20;99.90
28677;DHT22;15858;48.338;11.078;2024-02-26T02:38:18;3.20;99.90
28677;DHT22;15858;48.338;11.078;2024-02-26T02:40:45;3.30;99.90
28677;DHT22;15858;48.338;11.078;2024-02-26T02:43:12;3.20;99.90
28677;DHT22;15858;48.338;11.078;2024-02-26T02:45:38;3.30;99.90
28677;DHT22;15858;48.338;11.078;2024-02-26T02:48:05;3.30;99.90
28677;DHT22;15858;48.338;11.078;2024-02-26T02:50:32;3.30;99.90
28677;DHT22;15858;48.338;11.078;2024-02-26T02:52:59;3.30;99.90
28677;DHT22;15858;48.338;11.078;2024-02-26T02:55:25;3.30;99.90
28677;DHT22;15858;48.338;11.078;2024-02-26T02:57:52;3.30;99.90
28677;DHT22;15858;48.338;11.078;2024-02-26T03:00:19;3.40;99.90
28677;DHT22;15858;48.338;11.078;2024-02-26T03:02:46;3.30;99.90
28677;DHT22;15858;48.338;11.078;2024-02-26T03:05:13;3.30;99.90
28677;DHT22;15858;48.338;11.078;2024-02-26T03:07:39;3.40;99.90
28677;DHT22;15858;48.338;11.078;2024-02-26T03:10:06;3.40;99.90
28677;DHT22;15858;48.338;11.078;2024-02-26T03:12:34;3.50;99.90
28677;DHT22;15858;48.338;11.078;2024-02-26T03:15:01;3.50;99.90
28677;DHT22;15858;48.338;11.078;2024-02-26T03:17:29;3.50;99.90
28677;DHT22;15858;48.338;11.078;2024-02-26T03:19:55;3.40;99.90
28677;DHT22;15858;48.338;11.078;2024-02-26T03:22:22;3.50;99.90
28677;DHT22;15858;48.338;11.078;2024-02-26T03:24:49;3.50;99.90
28677;DHT22;15858;48.338;11.078;2024-02-26T03:27:15;3.60;99.90
28677;DHT22;15858;48.338;11.078;2024-02-26T03:29:42;3.70;99.90
28677;DHT22;15858;48.338;11.078;2024-02-26T03:32:09;3.60;99.90
28677;DHT22;15858;48.338;11.078;2024-02-26T03:34:36;3.70;99.90
28677;DHT22;15858;48.338;11.078;2024-02-26T03:37:03;3.60;99.90
28677;DHT22;15858;48.338;11.078;2024-02-26T03:39:30;3.60;99.90
28677;DHT22;15858;48.338;11.078;2024-02-26T03:41:57;3.50;99.90
28677;DHT22;15858;48.338;11.078;2024-02-26T03:44:24;3.50;99.90
28677;DHT22;15858;48.338;11.078;2024-02-26T03:46:50;3.50;99.90
28677;DHT22;15858;48.338;11.078;2024-02-26T03:49:17;3.40;99.90
28677;DHT22;15858;48.338;11.078;2024-02-26T03:51:44;3.50;99.90
28677;DHT22;15858;48.338;11.078;2024-02-26T03:54:10;3.50;99.90
28677;DHT22;15858;48.338;11.078;2024-02-26T03:56:37;3.50;99.90
28677;DHT22;15858;48.338;11.078;2024-02-26T03:59:04;3.50;99.90
28677;DHT22;15858;48.338;11.078;2024-02-26T04:01:30;3.50;99.90
28677;DHT22;15858;48.338;11.078;2024-02-26T04:03:57;3.50;99.90
28677;DHT22;15858;48.338;11.078;2024-02-26T04:06:24;3.60;99.90
28677;DHT22;15858;48.338;11.078;2024-02-26T04:08:51;3.60;99.90
28677;DHT22;15858;48.338;11.078;2024-02-26T04:11:18;3.60;99.90
28677;DHT22;15858;48.338;11.078;2024-02-26T04:13:44;3.60;99.90
28677;DHT22;15858;48.338;11.078;2024-02-26T04:16:11;3.60;99.90
28677;DHT22;15858;48.338;11.078;2024-02-26T04:18:38;3.60;99.90
28677;DHT22;15858;48.338;11.078;2024-02-26T04:21:05;3.50;99.90
28677;DHT22;15858;48.338;11.078;2024-02-26T04:23:34;3.50;99.90
28677;DHT22;15858;48.338;11.078;2024-02-26T04:26:01;3.50;99.90
28677;DHT22;15858;48.338;11.078;2024-02-26T04:28:27;3.40;99.90
28677;DHT22;15858;48.338;11.078;2024-02-26T04:30:55;3.50;99.90
28677;DHT22;15858;48.338;11.078;2024-02-26T04:33:22;3.50;99.90
28677;DHT22;15858;48.338;11.078;2024-02-26T04:35:48;3.50;99.90
28677;DHT22;15858;48.338;11.078;2024-02-26T04:38:15;3.50;99.90
28677;DHT22;15858;48.338;11.078;2024-02-26T04:40:42;3.50;99.90
28677;DHT22;15858;48.338;11.078;2024-02-26T04:43:08;3.60;99.90
28677;DHT22;15858;48.338;11.078;2024-02-26T04:45:35;3.60;99.90
28677;DHT22;15858;48.338;11.078;2024-02-26T04:48:02;3.50;99.90
28677;DHT22;15858;48.338;11.078;2024-02-26T04:50:29;3.40;99.90
28677;DHT22;15858;48.338;11.078;2024-02-26T04:52:56;3.40;99.90
28677;DHT22;15858;48.338;11.078;2024-02-26T04:55:22;3.40;99.90
28677;DHT22;15858;48.338;11.078;2024-02-26T04:57:49;3.40;99.90
28677;DHT22;15858;48.338;11.078;2024-02-26T05:00:16;3.40;99.90
28677;DHT22;15858;48.338;11.078;2024-02-26T05:02:43;3.40;99.90
28677;DHT22;15858;48.338;11.078;2024-02-26T05:05:10;3.40;99.90
28677;DHT22;15858;48.338;11.078;2024-02-26T05:07:41;3.40;99.90
28677;DHT22;15858;48.338;11.078;2024-02-26T05:10:08;3.40;99.90
28677;DHT22;15858;48.338;11.078;2024-02-26T05:12:34;3.40;99.90
28677;DHT22;15858;48.338;11.078;2024-02-26T05:15:02;3.40;99.90
28677;DHT22;15858;48.338;11.078;2024-02-26T05:17:29;3.40;99.90
28677;DHT22;15858;48.338;11.078;2024-02-26T05:19:55;3.40;99.90
28677;DHT22;15858;48.338;11.078;2024-02-26T05:22:22;3.40;99.90
28677;DHT22;15858;48.338;11.078;2024-02-26T05:24:49;3.40;99.90
28677;DHT22;15858;48.338;11.078;2024-02-26T05:27:16;3.30;99.90
28677;DHT22;15858;48.338;11.078;2024-02-26T05:29:42;3.20;99.90
28677;DHT22;15858;48.338;11.078;2024-02-26T05:32:09;3.00;99.90
28677;DHT22;15858;48.338;11.078;2024-02-26T05:34:36;2.90;99.90
28677;DHT22;15858;48.338;11.078;2024-02-26T05:37:03;3.00;99.90
28677;DHT22;15858;48.338;11.078;2024-02-26T05:39:30;3.10;99.90
28677;DHT22;15858;48.338;11.078;2024-02-26T05:41:56;3.10;99.90
28677;DHT22;15858;48.338;11.078;2024-02-26T05:44:26;3.10;99.90
28677;DHT22;15858;48.338;11.078;2024-02-26T05:46:53;3.10;99.90
28677;DHT22;15858;48.338;11.078;2024-02-26T05:49:19;3.10;99.90
28677;DHT22;15858;48.338;11.078;2024-02-26T05:51:46;3.10;99.90
28677;DHT22;15858;48.338;11.078;2024-02-26T05:54:13;3.10;99.90
28677;DHT22;15858;48.338;11.078;2024-02-26T05:56:40;3.10;99.90
28677;DHT22;15858;48.338;11.078;2024-02-26T05:59:06;3.10;99.90
28677;DHT22;15858;48.338;11.078;2024-02-26T06:01:33;3.20;99.90
28677;DHT22;15858;48.338;11.078;2024-02-26T06:04:00;3.20;99.90
28677;DHT22;15858;48.338;11.078;2024-02-26T06:06:27;3.20;99.90
28677;DHT22;15858;48.338;11.078;2024-02-26T06:08:54;3.30;99.90
28677;DHT22;15858;48.338;11.078;2024-02-26T06:11:20;3.40;99.90
28677;DHT22;15858;48.338;11.078;2024-02-26T06:13:47;3.40;99.90
28677;DHT22;15858;48.338;11.078;2024-02-26T06:16:14;3.40;99.90
28677;DHT22;15858;48.338;11.078;2024-02-26T06:18:41;3.50;99.90
28677;DHT22;15858;48.338;11.078;2024-02-26T06:21:11;3.40;99.90
28677;DHT22;15858;48.338;11.078;2024-02-26T06:23:39;3.40;99.90
28677;DHT22;15858;48.338;11.078;2024-02-26T06:26:06;3.50;99.90
28677;DHT22;15858;48.338;11.078;2024-02-26T06:28:32;3.50;99.90
28677;DHT22;15858;48.338;11.078;2024-02-26T06:30:59;3.30;99.90
28677;DHT22;15858;48.338;11.078;2024-02-26T06:33:26;3.30;99.90
28677;DHT22;15858;48.338;11.078;2024-02-26T06:35:53;3.30;99.90
28677;DHT22;15858;48.338;11.078;2024-02-26T06:38:20;3.20;99.90
28677;DHT22;15858;48.338;11.078;2024-02-26T06:40:46;3.30;99.90
28677;DHT22;15858;48.338;11.078;2024-02-26T06:43:13;3.30;99.90
28677;DHT22;15858;48.338;11.078;2024-02-26T06:45:40;3.40;99.90
28677;DHT22;15858;48.338;11.078;2024-02-26T06:48:07;3.40;99.90
28677;DHT22;15858;48.338;11.078;2024-02-26T06:50:34;3.40;99.90
28677;DHT22;15858;48.338;11.078;2024-02-26T06:53:00;3.40;99.90
28677;DHT22;15858;48.338;11.078;2024-02-26T06:55:27;3.60;99.90
28677;DHT22;15858;48.338;11.078;2024-02-26T06:57:54;3.50;99.90
28677;DHT22;15858;48.338;11.078;2024-02-26T07:00:21;3.20;99.90
28677;DHT22;15858;48.338;11.078;2024-02-26T07:02:47;3.30;99.90
28677;DHT22;15858;48.338;11.078;2024-02-26T07:05:14;3.30;99.90
28677;DHT22;15858;48.338;11.078;2024-02-26T07:07:42;3.40;99.90
28677;DHT22;15858;48.338;11.078;2024-02-26T07:10:10;3.50;99.90
28677;DHT22;15858;48.338;11.078;2024-02-26T07:12:37;3.50;99.90
28677;DHT22;15858;48.338;11.078;2024-02-26T07:15:04;3.60;99.90
28677;DHT22;15858;48.338;11.078;2024-02-26T07:17:31;3.50;99.90
28677;DHT22;15858;48.338;11.078;2024-02-26T07:19:58;3.60;99.90
28677;DHT22;15858;48.338;11.078;2024-02-26T07:22:25;3.70;99.90
28677;DHT22;15858;48.338;11.078;2024-02-26T07:24:52;3.70;99.90
28677;DHT22;15858;48.338;11.078;2024-02-26T07:27:18;3.80;99.90
28677;DHT22;15858;48.338;11.078;2024-02-26T07:29:45;3.80;99.90
28677;DHT22;15858;48.338;11.078;2024-02-26T07:32:12;3.90;99.90
28677;DHT22;15858;48.338;11.078;2024-02-26T07:34:39;4.00;99.90
28677;DHT22;15858;48.338;11.078;2024-02-26T07:37:06;3.90;99.90
28677;DHT22;15858;48.338;11.078;2024-02-26T07:39:32;3.90;99.90
28677;DHT22;15858;48.338;11.078;2024-02-26T07:41:59;3.90;99.90
28677;DHT22;15858;48.338;11.078;2024-02-26T07:44:26;4.30;99.90
28677;DHT22;15858;48.338;11.078;2024-02-26T07:46:53;4.30;99.90
28677;DHT22;15858;48.338;11.078;2024-02-26T07:49:19;4.20;99.90
28677;DHT22;15858;48.338;11.078;2024-02-26T07:51:46;4.20;99.90
28677;DHT22;15858;48.338;11.078;2024-02-26T07:54:13;4.40;99.90
28677;DHT22;15858;48.338;11.078;2024-02-26T07:56:40;4.30;99.90
28677;DHT22;15858;48.338;11.078;2024-02-26T07:59:06;4.30;99.90
28677;DHT22;15858;48.338;11.078;2024-02-26T08:01:33;4.20;99.90
28677;DHT22;15858;48.338;11.078;2024-02-26T08:04:00;4.20;99.90
28677;DHT22;15858;48.338;11.078;2024-02-26T08:06:27;4.30;99.90
28677;DHT22;15858;48.338;11.078;2024-02-26T08:08:54;4.40;99.90
28677;DHT22;15858;48.338;11.078;2024-02-26T08:11:23;4.50;99.90
28677;DHT22;15858;48.338;11.078;2024-02-26T08:13:50;4.60;99.90
28677;DHT22;15858;48.338;11.078;2024-02-26T08:16:17;4.80;99.90
28677;DHT22;15858;48.338;11.078;2024-02-26T08:18:45;4.90;99.90
28677;DHT22;15858;48.338;11.078;2024-02-26T08:21:12;5.00;99.90
28677;DHT22;15858;48.338;11.078;2024-02-26T08:23:38;5.20;99.90
28677;DHT22;15858;48.338;11.078;2024-02-26T08:26:05;5.20;99.90
28677;DHT22;15858;48.338;11.078;2024-02-26T08:28:32;5.30;99.90
28677;DHT22;15858;48.338;11.078;2024-02-26T08:30:58;5.50;99.90
28677;DHT22;15858;48.338;11.078;2024-02-26T08:33:25;5.60;99.90
28677;DHT22;15858;48.338;11.078;2024-02-26T08:35:52;5.60;99.90
28677;DHT22;15858;48.338;11.078;2024-02-26T08:38:19;5.60;99.90
28677;DHT22;15858;48.338;11.078;2024-02-26T08:40:46;5.80;99.90
28677;DHT22;15858;48.338;11.078;2024-02-26T08:43:12;5.70;99.90
28677;DHT22;15858;48.338;11.078;2024-02-26T08:45:39;5.60;99.90
28677;DHT22;15858;48.338;11.078;2024-02-26T08:48:06;5.90;99.90
28677;DHT22;15858;48.338;11.078;2024-02-26T08:50:33;6.00;99.90
28677;DHT22;15858;48.338;11.078;2024-02-26T08:53:00;6.00;99.90
28677;DHT22;15858;48.338;11.078;2024-02-26T08:55:28;5.90;99.90
28677;DHT22;15858;48.338;11.078;2024-02-26T08:57:55;5.90;99.90
28677;DHT22;15858;48.338;11.078;2024-02-26T09:00:22;5.90;99.90
28677;DHT22;15858;48.338;11.078;2024-02-26T09:02:48;6.00;99.90
28677;DHT22;15858;48.338;11.078;2024-02-26T09:05:16;6.10;99.90
28677;DHT22;15858;48.338;11.078;2024-02-26T09:07:43;6.00;99.90
28677;DHT22;15858;48.338;11.078;2024-02-26T09:10:10;6.00;99.90
28677;DHT22;15858;48.338;11.078;2024-02-26T09:12:37;6.20;99.90
28677;DHT22;15858;48.338;11.078;2024-02-26T09:15:06;6.20;99.90
28677;DHT22;15858;48.338;11.078;2024-02-26T09:17:33;6.20;99.90
28677;DHT22;15858;48.338;11.078;2024-02-26T09:19:59;6.20;99.90
28677;DHT22;15858;48.338;11.078;2024-02-26T09:22:26;6.40;99.90
28677;DHT22;15858;48.338;11.078;2024-02-26T09:24:53;6.40;99.90
28677;DHT22;15858;48.338;11.078;2024-02-26T09:27:20;6.40;99.90
28677;DHT22;15858;48.338;11.078;2024-02-26T09:29:46;6.50;99.90
28677;DHT22;15858;48.338;11.078;2024-02-26T09:32:13;6.60;99.90
28677;DHT22;15858;48.338;11.078;2024-02-26T09:34:40;6.50;99.90
28677;DHT22;15858;48.338;11.078;2024-02-26T09:37:07;6.50;99.90
28677;DHT22;15858;48.338;11.078;2024-02-26T09:39:47;6.60;99.90
28677;DHT22;15858;48.338;11.078;2024-02-26T09:42:14;6.50;99.90
28677;DHT22;15858;48.338;11.078;2024-02-26T09:44:43;6.60;99.90
28677;DHT22;15858;48.338;11.078;2024-02-26T09:47:12;6.60;99.90
28677;DHT22;15858;48.338;11.078;2024-02-26T09:49:39;6.70;99.90
28677;DHT22;15858;48.338;11.078;2024-02-26T09:52:06;6.70;99.90
28677;DHT22;15858;48.338;11.078;2024-02-26T09:54:35;6.90;99.90
28677;DHT22;15858;48.338;11.078;2024-02-26T09:57:03;6.90;99.90
28677;DHT22;15858;48.338;11.078;2024-02-26T09:59:40;6.90;99.90
28677;DHT22;15858;48.338;11.078;2024-02-26T10:02:13;6.80;99.90
28677;DHT22;15858;48.338;11.078;2024-02-26T10:04:41;6.80;99.90
28677;DHT22;15858;48.338;11.078;2024-02-26T10:07:10;6.90;99.90
28677;DHT22;15858;48.338;11.078;2024-02-26T10:09:38;7.00;99.90
28677;DHT22;15858;48.338;11.078;2024-02-26T10:12:08;7.00;99.90
28677;DHT22;15858;48.338;11.078;2024-02-26T10:14:36;7.00;99.90
28677;DHT22;15858;48.338;11.078;2024-02-26T10:17:06;7.10;99.90
28677;DHT22;15858;48.338;11.078;2024-02-26T10:19:33;7.20;99.90
28677;DHT22;15858;48.338;11.078;2024-02-26T10:22:04;7.30;99.90
28677;DHT22;15858;48.338;11.078;2024-02-26T10:24:31;7.50;99.90
28677;DHT22;15858;48.338;11.078;2024-02-26T10:26:58;7.70;99.90
28677;DHT22;15858;48.338;11.078;2024-02-26T10:29:25;7.90;99.90
28677;DHT22;15858;48.338;11.078;2024-02-26T10:31:52;7.90;99.90
28677;DHT22;15858;48.338;11.078;2024-02-26T10:34:19;8.00;99.90
28677;DHT22;15858;48.338;11.078;2024-02-26T10:36:47;8.10;99.90
28677;DHT22;15858;48.338;11.078;2024-02-26T10:39:20;8.20;99.90
28677;DHT22;15858;48.338;11.078;2024-02-26T10:41:48;8.20;99.90
28677;DHT22;15858;48.338;11.078;2024-02-26T10:44:15;8.30;99.90
28677;DHT22;15858;48.338;11.078;2024-02-26T10:46:47;8.40;99.90
28677;DHT22;15858;48.338;11.078;2024-02-26T10:49:15;8.60;99.90
28677;DHT22;15858;48.338;11.078;2024-02-26T10:51:44;8.50;99.90
28677;DHT22;15858;48.338;11.078;2024-02-26T10:54:15;8.60;99.90
28677;DHT22;15858;48.338;11.078;2024-02-26T10:56:42;8.60;99.90
28677;DHT22;15858;48.338;11.078;2024-02-26T10:59:09;8.70;99.90
28677;DHT22;15858;48.338;11.078;2024-02-26T11:01:36;9.00;99.90
28677;DHT22;15858;48.338;11.078;2024-02-26T11:04:03;9.20;99.90
28677;DHT22;15858;48.338;11.078;2024-02-26T11:06:30;9.20;99.90
28677;DHT22;15858;48.338;11.078;2024-02-26T11:08:59;9.30;99.90
28677;DHT22;15858;48.338;11.078;2024-02-26T11:11:27;9.30;99.90
28677;DHT22;15858;48.338;11.078;2024-02-26T11:13:56;9.50;99.90
28677;DHT22;15858;48.338;11.078;2024-02-26T11:16:23;9.50;99.90
28677;DHT22;15858;48.338;11.078;2024-02-26T11:18:53;9.70;99.90
28677;DHT22;15858;48.338;11.078;2024-02-26T11:21:21;9.70;99.90
28677;DHT22;15858;48.338;11.078;2024-02-26T11:23:48;10.00;99.90
28677;DHT22;15858;48.338;11.078;2024-02-26T11:26:16;10.10;99.90
28677;DHT22;15858;48.338;11.078;2024-02-26T11:28:44;10.20;99.90
28677;DHT22;15858;48.338;11.078;2024-02-26T11:31:12;10.20;99.90
28677;DHT22;15858;48.338;11.078;2024-02-26T11:33:39;10.30;99.90
28677;DHT22;15858;48.338;11.078;2024-02-26T11:36:10;10.40;99.90
28677;DHT22;15858;48.338;11.078;2024-02-26T11:38:38;10.40;99.90
28677;DHT22;15858;48.338;11.078;2024-02-26T11:41:05;10.40;99.90
28677;DHT22;15858;48.338;11.078;2024-02-26T11:43:51;10.70;99.90
28677;DHT22;15858;48.338;11.078;2024-02-26T11:46:40;11.10;99.90
28677;DHT22;15858;48.338;11.078;2024-02-26T11:49:29;11.40;99.90
28677;DHT22;15858;48.338;11.078;2024-02-26T11:51:58;11.40;99.90
28677;DHT22;15858;48.338;11.078;2024-02-26T11:54:45;11.20;99.90
28677;DHT22;15858;48.338;11.078;2024-02-26T11:57:22;11.10;99.90
28677;DHT22;15858;48.338;11.078;2024-02-26T11:59:49;11.10;99.90
28677;DHT22;15858;48.338;11.078;2024-02-26T12:05:21;11.40;99.90
28677;DHT22;15858;48.338;11.078;2024-02-26T12:10:30;11.50;99.90
28677;DHT22;15858;48.338;11.078;2024-02-26T12:12:58;11.60;99.90
28677;DHT22;15858;48.338;11.078;2024-02-26T12:15:31;11.50;99.90
28677;DHT22;15858;48.338;11.078;2024-02-26T12:18:00;11.60;99.90
28677;DHT22;15858;48.338;11.078;2024-02-26T12:20:28;11.80;99.90
28677;DHT22;15858;48.338;11.078;2024-02-26T12:22:56;12.00;99.90
28677;DHT22;15858;48.338;11.078;2024-02-26T12:25:25;12.20;99.90
28677;DHT22;15858;48.338;11.078;2024-02-26T12:27:53;12.40;99.90
28677;DHT22;15858;48.338;11.078;2024-02-26T12:30:21;12.40;99.90
28677;DHT22;15858;48.338;11.078;2024-02-26T12:32:52;12.50;99.90
28677;DHT22;15858;48.338;11.078;2024-02-26T12:35:19;12.50;99.90
28677;DHT22;15858;48.338;11.078;2024-02-26T12:37:46;12.80;99.90
28677;DHT22;15858;48.338;11.078;2024-02-26T12:40:13;12.80;99.90
28677;DHT22;15858;48.338;11.078;2024-02-26T12:42:40;12.70;99.90
28677;DHT22;15858;48.338;11.078;2024-02-26T12:45:11;12.60;99.90
28677;DHT22;15858;48.338;11.078;2024-02-26T12:47:39;12.60;99.90
28677;DHT22;15858;48.338;11.078;2024-02-26T12:50:07;12.60;99.90
28677;DHT22;15858;48.338;11.078;2024-02-26T12:52:40;12.30;99.90
28677;DHT22;15858;48.338;11.078;2024-02-26T12:55:08;12.30;99.90
28677;DHT22;15858;48.338;11.078;2024-02-26T12:57:38;12.30;99.90
28677;DHT22;15858;48.338;11.078;2024-02-26T13:00:06;12.20;99.90
28677;DHT22;15858;48.338;11.078;2024-02-26T13:02:35;12.20;99.90
28677;DHT22;15858;48.338;11.078;2024-02-26T13:05:06;12.20;99.90
28677;DHT22;15858;48.338;11.078;2024-02-26T13:07:34;12.30;99.90
28677;DHT22;15858;48.338;11.078;2024-02-26T13:10:01;12.40;99.90
28677;DHT22;15858;48.338;11.078;2024-02-26T13:12:27;12.60;99.90
28677;DHT22;15858;48.338;11.078;2024-02-26T13:15:02;12.50;99.90
28677;DHT22;15858;48.338;11.078;2024-02-26T13:17:32;12.50;99.90
28677;DHT22;15858;48.338;11.078;2024-02-26T13:19:59;12.40;99.90
28677;DHT22;15858;48.338;11.078;2024-02-26T13:22:26;12.40;99.90
28677;DHT22;15858;48.338;11.078;2024-02-26T13:24:57;12.50;99.90
28677;DHT22;15858;48.338;11.078;2024-02-26T13:27:24;12.50;99.90
28677;DHT22;15858;48.338;11.078;2024-02-26T13:30:09;12.50;99.90
28677;DHT22;15858;48.338;11.078;2024-02-26T13:32:38;12.50;99.90
28677;DHT22;15858;48.338;11.078;2024-02-26T13:35:12;12.50;99.90
28677;DHT22;15858;48.338;11.078;2024-02-26T13:37:40;12.40;99.90
28677;DHT22;15858;48.338;11.078;2024-02-26T13:40:08;12.40;99.90
28677;DHT22;15858;48.338;11.078;2024-02-26T13:42:38;12.30;99.90
28677;DHT22;15858;48.338;11.078;2024-02-26T13:45:06;12.10;99.90
28677;DHT22;15858;48.338;11.078;2024-02-26T13:47:36;12.10;99.90
28677;DHT22;15858;48.338;11.078;2024-02-26T13:50:04;12.00;99.90
28677;DHT22;15858;48.338;11.078;2024-02-26T13:52:31;12.00;99.90
28677;DHT22;15858;48.338;11.078;2024-02-26T13:54:57;12.00;99.90
28677;DHT22;15858;48.338;11.078;2024-02-26T13:57:24;12.10;99.90
28677;DHT22;15858;48.338;11.078;2024-02-26T13:59:51;12.00;99.90
28677;DHT22;15858;48.338;11.078;2024-02-26T14:02:18;11.90;99.90
28677;DHT22;15858;48.338;11.078;2024-02-26T14:04:45;11.90;99.90
28677;DHT22;15858;48.338;11.078;2024-02-26T14:07:13;11.90;99.90
28677;DHT22;15858;48.338;11.078;2024-02-26T14:09:40;11.80;99.90
28677;DHT22;15858;48.338;11.078;2024-02-26T14:12:15;11.80;99.90
28677;DHT22;15858;48.338;11.078;2024-02-26T14:14:44;11.70;99.90
28677;DHT22;15858;48.338;11.078;2024-02-26T14:17:11;11.80;99.90
28677;DHT22;15858;48.338;11.078;2024-02-26T14:19:38;11.80;99.90
28677;DHT22;15858;48.338;11.078;2024-02-26T14:22:05;11.70;99.90
28677;DHT22;15858;48.338;11.078;2024-02-26T14:24:32;11.60;99.90
28677;DHT22;15858;48.338;11.078;2024-02-26T14:26:58;11.60;99.90
28677;DHT22;15858;48.338;11.078;2024-02-26T14:29:25;11.50;99.90
28677;DHT22;15858;48.338;11.078;2024-02-26T14:31:52;11.50;99.90
28677;DHT22;15858;48.338;11.078;2024-02-26T14:34:18;11.50;99.90
28677;DHT22;15858;48.338;11.078;2024-02-26T14:36:45;11.40;99.90
28677;DHT22;15858;48.338;11.078;2024-02-26T14:39:12;11.40;99.90
28677;DHT22;15858;48.338;11.078;2024-02-26T14:41:40;11.40;99.90
28677;DHT22;15858;48.338;11.078;2024-02-26T14:44:06;11.40;99.90
28677;DHT22;15858;48.338;11.078;2024-02-26T14:46:33;11.40;99.90
28677;DHT22;15858;48.338;11.078;2024-02-26T14:49:00;11.30;99.90
28677;DHT22;15858;48.338;11.078;2024-02-26T14:51:27;11.30;99.90
28677;DHT22;15858;48.338;11.078;2024-02-26T14:53:54;11.20;99.90
28677;DHT22;15858;48.338;11.078;2024-02-26T14:56:20;11.10;99.90
28677;DHT22;15858;48.338;11.078;2024-02-26T14:58:47;11.10;99.90
28677;DHT22;15858;48.338;11.078;2024-02-26T15:01:14;11.10;99.90
28677;DHT22;15858;48.338;11.078;2024-02-26T15:03:41;11.10;99.90
28677;DHT22;15858;48.338;11.078;2024-02-26T15:06:07;11.00;99.90
28677;DHT22;15858;48.338;11.078;2024-02-26T15:08:34;11.10;99.90
28677;DHT22;15858;48.338;11.078;2024-02-26T15:11:01;11.10;99.90
28677;DHT22;15858;48.338;11.078;2024-02-26T15:13:28;11.00;99.90
28677;DHT22;15858;48.338;11.078;2024-02-26T15:15:55;11.00;99.90
28677;DHT22;15858;48.338;11.078;2024-02-26T15:18:22;10.90;99.90
28677;DHT22;15858;48.338;11.078;2024-02-26T15:20:49;10.90;99.90
28677;DHT22;15858;48.338;11.078;2024-02-26T15:23:15;10.80;99.90
28677;DHT22;15858;48.338;11.078;2024-02-26T15:25:42;10.80;99.90
28677;DHT22;15858;48.338;11.078;2024-02-26T15:28:09;10.80;99.90
28677;DHT22;15858;48.338;11.078;2024-02-26T15:30:35;10.80;99.90
28677;DHT22;15858;48.338;11.078;2024-02-26T15:33:02;10.80;99.90
28677;DHT22;15858;48.338;11.078;2024-02-26T15:35:29;10.70;99.90